Terminal Aerodrome Forecast
Issued by NWS

Home | Current Version | Previous Version | Text Only | Print | Product List | Glossary On
Versions: 1 2 3 4 5 6 7 8 9 10 11
966
FTUS43 KGRR 271140
TAFJXN
TAF
KJXN 271140Z 2712/2812 20009G18KT P6SM BKN140 BKN250
     FM271500 17012G21KT P6SM VCTS OVC025CB
     FM271700 22013G23KT P6SM SHRA VCTS BKN020CB
     FM271800 24013G23KT P6SM VCTS BKN025CB
     FM271900 24013G24KT P6SM BKN030
     FM280100 25008KT P6SM BKN030
     FM280700 25012KT P6SM SCT035
     FM281100 20007KT P6SM SCT120=

USA.gov is the U.S. government's official web portal to all federal, state and local government web resources and services.